Latest Coastal Weather Observations for Swanbourne

IDW60701

Issued at 8:53 am WST Thursday 30 March 2017 (issued every 10 minutes, with the page automatically refreshed every 10 minutes)

About coastal observations | Map of coastal stations | Coastal observations for WA | Marine services | Other Formats
Station Details ID: 009215 Name: SWANBOURNE Lat: -31.96 Lon: 115.76 Height: 40.96 m
Data from the previous 72 hours. | See also: Recent months at Swanbourne
Date/Time
WST
Temp
°C
Wind Pressure Rain since
9am
mm
Weather Cloud Vis
km
Sea
Height
m
Swell
Dir  Spd
kts
Gust
kts
hPa Trend Height
m
Period
s
Dir
30/08:30am 17.3 E 11 18 - - 0.0 - - - - - - -
30/08:00am 15.6 E 14 19 - - 0.0 - - - - - - -
30/07:30am 14.6 E 14 21 - - 0.0 - - - - - - -
30/07:00am 13.9 E 14 19 - - 0.0 - - - - - - -
30/06:30am 13.8 E 15 21 - - 0.0 - - - - - - -
30/06:00am 14.0 E 14 20 - - 0.0 - - - - - - -
30/05:30am 14.2 E 15 21 - - 0.0 - - - - - - -
30/05:00am 14.5 E 15 23 - - 0.0 - - - - - - -
30/04:30am 14.7 E 14 22 - - 0.0 - - - - - - -
30/04:12am 14.9 E 15 26 - - 0.0 - - - - - - -
30/04:00am 15.1 E 15 23 - - 0.0 - - - - - - -
30/03:30am 15.6 E 14 20 - - 0.0 - - - - - - -
30/03:00am 15.8 E 14 20 - - 0.0 - - - - - - -
30/02:30am 16.1 E 13 21 - - 0.0 - - - - - - -
30/02:06am 16.6 E 15 25 - - 0.0 - - - - - - -
30/02:00am 16.4 E 12 17 - - 0.0 - - - - - - -
30/01:30am 16.6 E 11 16 - - 0.0 - - - - - - -
30/01:00am 16.9 E 10 17 - - 0.0 - - - - - - -
30/12:30am 17.2 E 9 17 - - 0.0 - - - - - - -
30/12:00am 17.2 E 7 11 - - 0.0 - - - - - - -
 
Date/Time
WST
Temp
°C
Wind Pressure Rain since
9am
mm
Weather Cloud Vis
km
Sea
Height
m
Swell
Dir  Spd
kts
Gust
kts
hPa Trend Height
m
Period
s
Dir
29/11:30pm 17.5 ESE 6 14 - - 0.0 - - - - - - -
29/11:00pm 17.5 ESE 5 7 - - 0.0 - - - - - - -
29/10:30pm 18.1 ESE 6 9 - - 0.0 - - - - - - -
29/10:00pm 18.4 ESE 5 8 - - 0.0 - - - - - - -
29/09:30pm 18.7 ESE 6 11 - - 0.0 - - - - - - -
29/09:00pm 19.1 ESE 5 8 - - 0.0 - - - - - - -
29/08:30pm 19.9 ESE 7 12 - - 0.0 - - - - - - -
29/08:00pm 20.1 ESE 7 11 - - 0.0 - - - - - - -
29/07:30pm 20.4 ESE 6 13 - - 0.0 - - - - - - -
29/07:00pm 20.9 ESE 7 10 - - 0.0 - - - - - - -
29/06:30pm 21.4 ESE 8 16 - - 0.0 - - - - - - -
29/06:00pm 22.3 ESE 11 16 - - 0.0 - - - - - - -
29/05:30pm 22.9 ESE 9 15 - - 0.0 - - - - - - -
29/05:00pm 23.3 ESE 11 19 - - 0.0 - - - - - - -
29/04:30pm 23.9 E 10 16 - - 0.0 - - - - - - -
29/04:00pm 23.8 ESE 10 17 - - 0.0 - - - - - - -
29/03:30pm 24.3 E 10 16 - - 0.0 - - - - - - -
29/03:00pm 23.7 ESE 10 15 - - 0.0 - - - - - - -
29/02:30pm 23.4 ESE 12 19 - - 0.0 - - - - - - -
29/02:00pm 23.4 E 12 18 - - 0.0 - - - - - - -
29/01:30pm 23.7 ESE 9 17 - - 0.0 - - - - - - -
29/01:00pm 22.8 ESE 10 18 - - 0.0 - - - - - - -
29/12:30pm 21.3 E 10 17 - - 0.0 - - - - - - -
29/12:00pm 21.0 E 9 17 - - 0.0 - - - - - - -
29/11:30am 20.3 E 11 18 - - 0.0 - - - - - - -
29/11:00am 19.4 ESE 10 17 - - 0.0 - - - - - - -
29/10:30am 18.7 E 10 16 - - 0.0 - - - - - - -
29/10:00am 18.2 ESE 10 17 - - 0.0 - - - - - - -
29/09:30am 17.2 ESE 12 18 - - 0.0 - - - - - - -
29/09:00am 16.1 E 13 21 - - 0.0 - - - - - - -
29/08:30am 15.4 ESE 9 15 - - 0.0 - - - - - - -
29/08:00am 14.6 ESE 9 16 - - 0.0 - - - - - - -
29/07:30am 13.9 ESE 7 12 - - 0.0 - - - - - - -
29/07:00am 13.2 ESE 7 11 - - 0.0 - - - - - - -
29/06:30am 13.0 ESE 8 13 - - 0.0 - - - - - - -
29/06:00am 13.1 ESE 8 13 - - 0.0 - - - - - - -
29/05:30am 13.5 ESE 9 15 - - 0.0 - - - - - - -
29/05:00am 13.7 ESE 9 15 - - 0.0 - - - - - - -
29/04:30am 13.8 ESE 8 14 - - 0.0 - - - - - - -
29/04:00am 14.0 SE 8 13 - - 0.0 - - - - - - -
29/03:30am 14.1 SE 7 11 - - 0.0 - - - - - - -
29/03:00am 14.6 SE 7 11 - - 0.0 - - - - - - -
29/02:30am 14.9 SE 8 12 - - 0.0 - - - - - - -
29/02:00am 15.2 SSE 9 14 - - 0.0 - - - - - - -
29/01:30am 15.2 SE 8 11 - - 0.0 - - - - - - -
29/01:00am 15.6 SE 9 15 - - 0.0 - - - - - - -
29/12:30am 15.9 SSE 7 11 - - 0.0 - - - - - - -
29/12:00am 16.3 SSE 8 13 - - 0.0 - - - - - - -
 
Date/Time
WST
Temp
°C
Wind Pressure Rain since
9am
mm
Weather Cloud Vis
km
Sea
Height
m
Swell
Dir  Spd
kts
Gust
kts
hPa Trend Height
m
Period
s
Dir
28/11:30pm 16.6 SSE 6 9 - - 0.0 - - - - - - -
28/11:00pm 17.0 SSE 7 11 - - 0.0 - - - - - - -
28/10:30pm 17.6 SSE 9 13 - - 0.0 - - - - - - -
28/10:00pm 18.0 SSE 8 13 - - 0.0 - - - - - - -
28/09:30pm 18.2 S 9 14 - - 0.0 - - - - - - -
28/09:00pm 18.1 S 7 9 - - 0.0 - - - - - - -
28/08:30pm 18.4 SSE 8 13 - - 0.0 - - - - - - -
28/08:00pm 18.4 S 8 15 - - 0.0 - - - - - - -
28/07:30pm 18.5 S 10 16 - - 0.0 - - - - - - -
28/07:00pm 18.6 S 12 17 - - 0.0 - - - - - - -
28/06:30pm 18.6 SSW 10 16 - - 0.0 - - - - - - -
28/06:00pm 19.0 SSW 11 16 - - 0.0 - - - - - - -
28/05:30pm 19.2 SSW 11 17 - - 0.0 - - - - - - -
28/05:00pm 20.2 SSW 12 18 - - 0.0 - - - - - - -
28/04:30pm 19.8 SSW 10 19 - - 0.0 - - - - - - -
28/04:00pm 20.2 SSW 13 18 - - 0.0 - - - - - - -
28/03:30pm 21.3 SSW 11 17 - - 0.0 - - - - - - -
28/03:00pm 21.1 SSW 9 13 - - 0.0 - - - - - - -
28/02:30pm 20.2 SW 7 10 - - 0.0 - - - - - - -
28/02:00pm 20.2 SW 8 13 - - 0.0 - - - - - - -
28/01:30pm 20.0 SW 7 10 - - 0.0 - - - - - - -
28/01:00pm 20.3 SSW 9 13 - - 0.0 - - - - - - -
28/12:30pm 20.6 SW 8 13 - - 0.0 - - - - - - -
28/12:00pm 20.9 SSW 10 14 - - 0.0 - - - - - - -
28/11:30am 20.9 SSW 9 13 - - 0.0 - - - - - - -
28/11:00am 20.4 SSW 8 12 - - 0.0 - - - - - - -
28/10:30am 19.9 SSE 5 10 - - 0.0 - - - - - - -
28/10:00am 19.7 SE 3 8 - - 0.0 - - - - - - -
28/09:30am 18.7 ESE 6 8 - - 0.0 - - - - - - -
28/09:00am 18.1 ESE 6 8 - - 0.0 - - - - - - -
28/08:30am 16.2 E 6 8 - - 0.0 - - - - - - -
28/08:00am 14.8 E 6 8 - - 0.0 - - - - - - -
28/07:30am 13.1 E 7 8 - - 0.0 - - - - - - -
28/07:00am 12.2 ESE 6 8 - - 0.0 - - - - - - -
28/06:30am 12.2 ESE 6 8 - - 0.0 - - - - - - -
28/06:00am 12.3 ESE 7 9 - - 0.0 - - - - - - -
28/05:30am 12.3 ESE 6 7 - - 0.0 - - - - - - -
28/05:00am 12.7 SE 6 8 - - 0.0 - - - - - - -
28/04:30am 12.9 SE 5 7 - - 0.0 - - - - - - -
28/04:00am 12.9 SE 5 7 - - 0.0 - - - - - - -
28/03:30am 13.0 SE 5 7 - - 0.0 - - - - - - -
28/03:00am 13.2 ESE 5 7 - - 0.0 - - - - - - -
28/02:30am 13.3 SE 5 6 - - 0.0 - - - - - - -
28/02:00am 13.7 ESE 4 5 - - 0.0 - - - - - - -
28/01:30am 13.7 SE 4 6 - - 0.0 - - - - - - -
28/01:00am 13.9 SE 5 6 - - 0.0 - - - - - - -
28/12:30am 14.4 SE 5 6 - - 0.0 - - - - - - -
28/12:00am 14.9 SE 5 7 - - 0.0 - - - - - - -
 
Date/Time
WST
Temp
°C
Wind Pressure Rain since
9am
mm
Weather Cloud Vis
km
Sea
Height
m
Swell
Dir  Spd
kts
Gust
kts
hPa Trend Height
m
Period
s
Dir
27/11:30pm 15.4 SE 5 10 - - 0.0 - - - - - - -
27/11:00pm 15.7 SE 5 9 - - 0.0 - - - - - - -
27/10:30pm 16.1 SSE 6 8 - - 0.0 - - - - - - -
27/10:00pm 16.2 SSE 6 9 - - 0.0 - - - - - - -
27/09:30pm 16.4 SSE 6 9 - - 0.0 - - - - - - -
27/09:00pm 16.5 SSE 6 9 - - 0.0 - - - - - - -
27/08:30pm 16.6 SSE 6 9 - - 0.0 - - - - - - -
27/08:00pm 17.0 S 7 11 - - 0.0 - - - - - - -
27/07:30pm 17.5 SSE 8 12 - - 0.0 - - - - - - -
27/07:00pm 17.8 S 8 11 - - 0.0 - - - - - - -
27/06:30pm 18.0 S 9 14 - - 0.0 - - - - - - -
27/06:00pm 18.4 S 9 15 - - 0.0 - - - - - - -
27/05:30pm 18.9 S 13 19 - - 0.0 - - - - - - -
27/05:00pm 19.9 S 12 21 - - 0.0 - - - - - - -
27/04:30pm 20.3 SSW 13 21 - - 0.0 - - - - - - -
27/04:00pm 20.6 SSW 11 17 - - 0.0 - - - - - - -
27/03:30pm 21.0 SSW 11 15 - - 0.0 - - - - - - -
27/03:00pm 21.0 SSW 11 17 - - 0.0 - - - - - - -
27/02:30pm 20.9 SSW 10 14 - - 0.0 - - - - - - -
27/02:00pm 21.3 SSW 10 15 - - 0.0 - - - - - - -
27/01:30pm 20.8 SSW 10 15 - - 0.0 - - - - - - -
27/01:00pm 21.0 SSW 9 12 - - 0.0 - - - - - - -
27/12:30pm 20.5 SW 7 10 - - 0.0 - - - - - - -
27/12:00pm 19.9 SW 8 11 - - 0.0 - - - - - - -
27/11:30am 20.5 WSW 7 10 - - 0.0 - - - - - - -
27/11:00am 19.5 WSW 8 11 - - 0.0 - - - - - - -
27/10:30am 19.8 SSW 4 7 - - 0.0 - - - - - - -
27/10:00am 19.1 SE 2 6 - - 0.0 - - - - - - -
27/09:30am 18.5 E 3 5 - - 0.0 - - - - - - -
27/09:00am 17.9 E 4 6 - - 0.0 - - - - - - -

Other Formats:

Comma delimited format used in spreadsheet applications
http://www.bom.gov.au/fwo/IDW60701/IDW60701.94614.axf

JavaScript Object Notation format (JSON) in row-major order
http://www.bom.gov.au/fwo/IDW60701/IDW60701.94614.json